sensor_id;sensor_type;location;lat;lon;timestamp;P1;durP1;ratioP1;P2;durP2;ratioP2
64075;SDS011;50327;51.328;12.324;2023-06-22T00:01:16;18.10;;;8.88;;
64075;SDS011;50327;51.328;12.324;2023-06-22T00:03:41;16.13;;;9.05;;
64075;SDS011;50327;51.328;12.324;2023-06-22T00:06:06;10.82;;;7.57;;
64075;SDS011;50327;51.328;12.324;2023-06-22T00:08:32;13.18;;;7.78;;
64075;SDS011;50327;51.328;12.324;2023-06-22T00:10:57;11.85;;;7.85;;
64075;SDS011;50327;51.328;12.324;2023-06-22T00:13:22;14.02;;;7.60;;
64075;SDS011;50327;51.328;12.324;2023-06-22T00:15:48;15.48;;;7.78;;
64075;SDS011;50327;51.328;12.324;2023-06-22T00:18:13;12.82;;;8.63;;
64075;SDS011;50327;51.328;12.324;2023-06-22T00:20:38;15.27;;;7.85;;
64075;SDS011;50327;51.328;12.324;2023-06-22T00:23:05;14.52;;;7.95;;
64075;SDS011;50327;51.328;12.324;2023-06-22T00:25:37;13.05;;;7.78;;
64075;SDS011;50327;51.328;12.324;2023-06-22T00:28:05;15.30;;;7.88;;
64075;SDS011;50327;51.328;12.324;2023-06-22T00:30:31;13.07;;;8.35;;
64075;SDS011;50327;51.328;12.324;2023-06-22T00:32:57;13.20;;;8.65;;
64075;SDS011;50327;51.328;12.324;2023-06-22T00:35:23;16.50;;;7.88;;
64075;SDS011;50327;51.328;12.324;2023-06-22T00:37:54;12.95;;;8.00;;
64075;SDS011;50327;51.328;12.324;2023-06-22T00:40:29;15.07;;;9.07;;
64075;SDS011;50327;51.328;12.324;2023-06-22T00:42:55;16.00;;;8.50;;
64075;SDS011;50327;51.328;12.324;2023-06-22T00:45:21;13.40;;;8.52;;
64075;SDS011;50327;51.328;12.324;2023-06-22T00:47:53;17.42;;;8.48;;
64075;SDS011;50327;51.328;12.324;2023-06-22T00:50:25;16.85;;;9.07;;
64075;SDS011;50327;51.328;12.324;2023-06-22T00:52:53;15.73;;;9.32;;
64075;SDS011;50327;51.328;12.324;2023-06-22T00:55:21;13.77;;;9.32;;
64075;SDS011;50327;51.328;12.324;2023-06-22T00:57:47;16.58;;;9.10;;
64075;SDS011;50327;51.328;12.324;2023-06-22T01:00:14;13.65;;;9.02;;
64075;SDS011;50327;51.328;12.324;2023-06-22T01:02:44;18.95;;;9.43;;
64075;SDS011;50327;51.328;12.324;2023-06-22T01:05:14;15.05;;;9.32;;
64075;SDS011;50327;51.328;12.324;2023-06-22T01:10:32;13.35;;;8.55;;
64075;SDS011;50327;51.328;12.324;2023-06-22T01:16:03;16.55;;;8.90;;
64075;SDS011;50327;51.328;12.324;2023-06-22T01:18:35;14.32;;;8.73;;
64075;SDS011;50327;51.328;12.324;2023-06-22T01:21:04;15.93;;;8.63;;
64075;SDS011;50327;51.328;12.324;2023-06-22T01:26:22;10.93;;;7.63;;
64075;SDS011;50327;51.328;12.324;2023-06-22T01:29:00;16.35;;;9.30;;
64075;SDS011;50327;51.328;12.324;2023-06-22T01:31:28;15.90;;;9.05;;
64075;SDS011;50327;51.328;12.324;2023-06-22T01:33:57;13.48;;;9.75;;
64075;SDS011;50327;51.328;12.324;2023-06-22T01:36:28;13.80;;;9.07;;
64075;SDS011;50327;51.328;12.324;2023-06-22T01:38:55;13.15;;;8.68;;
64075;SDS011;50327;51.328;12.324;2023-06-22T01:41:24;16.73;;;9.63;;
64075;SDS011;50327;51.328;12.324;2023-06-22T01:43:51;14.55;;;9.15;;
64075;SDS011;50327;51.328;12.324;2023-06-22T01:46:18;14.75;;;8.90;;
64075;SDS011;50327;51.328;12.324;2023-06-22T01:48:45;27.83;;;9.90;;
64075;SDS011;50327;51.328;12.324;2023-06-22T01:51:14;16.52;;;9.73;;
64075;SDS011;50327;51.328;12.324;2023-06-22T01:53:40;18.38;;;9.65;;
64075;SDS011;50327;51.328;12.324;2023-06-22T01:56:06;13.00;;;8.82;;
64075;SDS011;50327;51.328;12.324;2023-06-22T01:58:31;14.52;;;9.25;;
64075;SDS011;50327;51.328;12.324;2023-06-22T02:01:09;13.95;;;9.40;;
64075;SDS011;50327;51.328;12.324;2023-06-22T02:03:37;14.75;;;8.90;;
64075;SDS011;50327;51.328;12.324;2023-06-22T02:06:11;14.43;;;9.18;;
64075;SDS011;50327;51.328;12.324;2023-06-22T02:08:44;14.95;;;9.35;;
64075;SDS011;50327;51.328;12.324;2023-06-22T02:11:13;14.50;;;8.90;;
64075;SDS011;50327;51.328;12.324;2023-06-22T02:13:41;13.98;;;9.13;;
64075;SDS011;50327;51.328;12.324;2023-06-22T02:16:11;17.95;;;10.02;;
64075;SDS011;50327;51.328;12.324;2023-06-22T02:18:38;14.02;;;8.82;;
64075;SDS011;50327;51.328;12.324;2023-06-22T02:21:05;15.88;;;9.32;;
64075;SDS011;50327;51.328;12.324;2023-06-22T02:23:30;23.30;;;10.50;;
64075;SDS011;50327;51.328;12.324;2023-06-22T02:25:58;15.52;;;9.32;;
64075;SDS011;50327;51.328;12.324;2023-06-22T02:28:23;17.25;;;10.93;;
64075;SDS011;50327;51.328;12.324;2023-06-22T02:30:49;18.45;;;10.05;;
64075;SDS011;50327;51.328;12.324;2023-06-22T02:33:14;17.27;;;8.65;;
64075;SDS011;50327;51.328;12.324;2023-06-22T02:35:39;19.40;;;10.32;;
64075;SDS011;50327;51.328;12.324;2023-06-22T02:38:10;17.20;;;9.77;;
64075;SDS011;50327;51.328;12.324;2023-06-22T02:40:35;15.00;;;9.45;;
64075;SDS011;50327;51.328;12.324;2023-06-22T02:43:01;15.52;;;9.95;;
64075;SDS011;50327;51.328;12.324;2023-06-22T02:45:28;18.35;;;10.05;;
64075;SDS011;50327;51.328;12.324;2023-06-22T02:47:53;15.75;;;9.32;;
64075;SDS011;50327;51.328;12.324;2023-06-22T02:50:20;15.57;;;8.98;;
64075;SDS011;50327;51.328;12.324;2023-06-22T02:52:45;16.50;;;9.07;;
64075;SDS011;50327;51.328;12.324;2023-06-22T02:55:11;19.60;;;9.38;;
64075;SDS011;50327;51.328;12.324;2023-06-22T02:57:36;15.82;;;9.25;;
64075;SDS011;50327;51.328;12.324;2023-06-22T03:00:03;13.40;;;8.98;;
64075;SDS011;50327;51.328;12.324;2023-06-22T03:02:46;17.08;;;9.35;;
64075;SDS011;50327;51.328;12.324;2023-06-22T03:05:12;13.95;;;8.93;;
64075;SDS011;50327;51.328;12.324;2023-06-22T03:07:42;17.30;;;10.57;;
64075;SDS011;50327;51.328;12.324;2023-06-22T03:10:11;14.90;;;9.27;;
64075;SDS011;50327;51.328;12.324;2023-06-22T03:12:38;15.30;;;9.90;;
64075;SDS011;50327;51.328;12.324;2023-06-22T03:15:10;16.42;;;9.95;;
64075;SDS011;50327;51.328;12.324;2023-06-22T03:17:37;13.75;;;9.80;;
64075;SDS011;50327;51.328;12.324;2023-06-22T03:20:05;17.75;;;9.65;;
64075;SDS011;50327;51.328;12.324;2023-06-22T03:22:37;16.25;;;10.82;;
64075;SDS011;50327;51.328;12.324;2023-06-22T03:25:03;15.85;;;9.63;;
64075;SDS011;50327;51.328;12.324;2023-06-22T03:27:29;17.48;;;10.75;;
64075;SDS011;50327;51.328;12.324;2023-06-22T03:29:56;16.67;;;10.57;;
64075;SDS011;50327;51.328;12.324;2023-06-22T03:32:22;27.40;;;10.52;;
64075;SDS011;50327;51.328;12.324;2023-06-22T03:34:47;18.95;;;10.27;;
64075;SDS011;50327;51.328;12.324;2023-06-22T03:37:15;16.23;;;10.77;;
64075;SDS011;50327;51.328;12.324;2023-06-22T03:39:41;14.88;;;9.82;;
64075;SDS011;50327;51.328;12.324;2023-06-22T03:42:07;16.52;;;10.82;;
64075;SDS011;50327;51.328;12.324;2023-06-22T03:44:33;19.85;;;10.88;;
64075;SDS011;50327;51.328;12.324;2023-06-22T03:47:00;17.50;;;9.88;;
64075;SDS011;50327;51.328;12.324;2023-06-22T03:49:27;18.88;;;10.55;;
64075;SDS011;50327;51.328;12.324;2023-06-22T03:51:52;18.33;;;10.63;;
64075;SDS011;50327;51.328;12.324;2023-06-22T03:54:18;20.83;;;9.93;;
64075;SDS011;50327;51.328;12.324;2023-06-22T03:56:43;18.30;;;10.48;;
64075;SDS011;50327;51.328;12.324;2023-06-22T03:59:09;15.45;;;10.40;;
64075;SDS011;50327;51.328;12.324;2023-06-22T04:01:34;17.83;;;10.05;;
64075;SDS011;50327;51.328;12.324;2023-06-22T04:04:00;16.30;;;10.48;;
64075;SDS011;50327;51.328;12.324;2023-06-22T04:06:25;19.35;;;10.68;;
64075;SDS011;50327;51.328;12.324;2023-06-22T04:08:51;17.30;;;10.65;;
64075;SDS011;50327;51.328;12.324;2023-06-22T04:11:17;15.48;;;10.13;;
64075;SDS011;50327;51.328;12.324;2023-06-22T04:13:43;16.63;;;9.88;;
64075;SDS011;50327;51.328;12.324;2023-06-22T04:16:09;14.07;;;9.48;;
64075;SDS011;50327;51.328;12.324;2023-06-22T04:18:34;15.95;;;10.48;;
64075;SDS011;50327;51.328;12.324;2023-06-22T04:21:01;17.67;;;10.32;;
64075;SDS011;50327;51.328;12.324;2023-06-22T04:23:27;17.38;;;10.55;;
64075;SDS011;50327;51.328;12.324;2023-06-22T04:25:52;17.20;;;11.05;;
64075;SDS011;50327;51.328;12.324;2023-06-22T04:28:18;21.33;;;11.88;;
64075;SDS011;50327;51.328;12.324;2023-06-22T04:30:43;22.00;;;11.88;;
64075;SDS011;50327;51.328;12.324;2023-06-22T04:33:15;20.00;;;12.73;;
64075;SDS011;50327;51.328;12.324;2023-06-22T04:35:40;18.73;;;12.18;;
64075;SDS011;50327;51.328;12.324;2023-06-22T04:38:06;17.73;;;12.27;;
64075;SDS011;50327;51.328;12.324;2023-06-22T04:40:32;21.67;;;12.68;;
64075;SDS011;50327;51.328;12.324;2023-06-22T04:42:58;18.33;;;11.15;;
64075;SDS011;50327;51.328;12.324;2023-06-22T04:45:27;17.27;;;11.45;;
64075;SDS011;50327;51.328;12.324;2023-06-22T04:47:52;19.35;;;11.73;;
64075;SDS011;50327;51.328;12.324;2023-06-22T04:50:18;19.27;;;12.02;;
64075;SDS011;50327;51.328;12.324;2023-06-22T04:52:46;17.42;;;10.80;;
64075;SDS011;50327;51.328;12.324;2023-06-22T04:55:12;24.60;;;12.68;;
64075;SDS011;50327;51.328;12.324;2023-06-22T04:57:37;17.05;;;11.40;;
64075;SDS011;50327;51.328;12.324;2023-06-22T05:00:04;21.25;;;11.65;;
64075;SDS011;50327;51.328;12.324;2023-06-22T05:02:40;18.27;;;12.13;;
64075;SDS011;50327;51.328;12.324;2023-06-22T05:05:05;20.55;;;11.93;;
64075;SDS011;50327;51.328;12.324;2023-06-22T05:07:33;20.27;;;12.13;;
64075;SDS011;50327;51.328;12.324;2023-06-22T05:10:01;26.05;;;12.38;;
64075;SDS011;50327;51.328;12.324;2023-06-22T05:12:28;23.27;;;12.60;;
64075;SDS011;50327;51.328;12.324;2023-06-22T05:14:55;27.35;;;12.43;;
64075;SDS011;50327;51.328;12.324;2023-06-22T05:17:20;19.13;;;11.95;;
64075;SDS011;50327;51.328;12.324;2023-06-22T05:19:46;20.50;;;12.88;;
64075;SDS011;50327;51.328;12.324;2023-06-22T05:22:14;20.00;;;12.23;;
64075;SDS011;50327;51.328;12.324;2023-06-22T05:24:41;22.65;;;11.63;;
64075;SDS011;50327;51.328;12.324;2023-06-22T05:27:07;20.00;;;11.85;;
64075;SDS011;50327;51.328;12.324;2023-06-22T05:29:32;20.13;;;12.00;;
64075;SDS011;50327;51.328;12.324;2023-06-22T05:31:57;21.55;;;12.45;;
64075;SDS011;50327;51.328;12.324;2023-06-22T05:34:23;22.63;;;12.23;;
64075;SDS011;50327;51.328;12.324;2023-06-22T05:36:48;20.70;;;12.38;;
64075;SDS011;50327;51.328;12.324;2023-06-22T05:39:14;20.85;;;11.80;;
64075;SDS011;50327;51.328;12.324;2023-06-22T05:41:42;19.80;;;11.60;;
64075;SDS011;50327;51.328;12.324;2023-06-22T05:44:08;21.00;;;12.00;;
64075;SDS011;50327;51.328;12.324;2023-06-22T05:46:34;21.20;;;12.05;;
64075;SDS011;50327;51.328;12.324;2023-06-22T05:48:59;23.08;;;11.77;;
64075;SDS011;50327;51.328;12.324;2023-06-22T05:51:25;17.00;;;12.43;;
64075;SDS011;50327;51.328;12.324;2023-06-22T05:53:50;17.58;;;10.88;;
64075;SDS011;50327;51.328;12.324;2023-06-22T05:56:16;17.35;;;11.25;;
64075;SDS011;50327;51.328;12.324;2023-06-22T05:58:42;18.45;;;12.00;;
64075;SDS011;50327;51.328;12.324;2023-06-22T06:01:07;18.67;;;12.55;;
64075;SDS011;50327;51.328;12.324;2023-06-22T06:03:33;23.35;;;10.15;;
64075;SDS011;50327;51.328;12.324;2023-06-22T06:05:58;15.93;;;10.40;;
64075;SDS011;50327;51.328;12.324;2023-06-22T06:08:25;17.00;;;10.23;;
64075;SDS011;50327;51.328;12.324;2023-06-22T06:10:50;18.45;;;10.18;;
64075;SDS011;50327;51.328;12.324;2023-06-22T06:13:18;16.60;;;9.43;;
64075;SDS011;50327;51.328;12.324;2023-06-22T06:15:43;16.67;;;10.05;;
64075;SDS011;50327;51.328;12.324;2023-06-22T06:18:08;18.67;;;10.18;;
64075;SDS011;50327;51.328;12.324;2023-06-22T06:20:34;15.60;;;9.48;;
64075;SDS011;50327;51.328;12.324;2023-06-22T06:23:00;15.02;;;9.40;;
64075;SDS011;50327;51.328;12.324;2023-06-22T06:25:26;14.82;;;9.95;;
64075;SDS011;50327;51.328;12.324;2023-06-22T06:27:51;20.63;;;10.55;;
64075;SDS011;50327;51.328;12.324;2023-06-22T06:30:19;19.63;;;9.95;;
64075;SDS011;50327;51.328;12.324;2023-06-22T06:32:45;27.33;;;8.95;;
64075;SDS011;50327;51.328;12.324;2023-06-22T06:35:12;16.63;;;9.55;;
64075;SDS011;50327;51.328;12.324;2023-06-22T06:37:40;17.90;;;9.80;;
64075;SDS011;50327;51.328;12.324;2023-06-22T06:40:07;15.93;;;8.87;;
64075;SDS011;50327;51.328;12.324;2023-06-22T06:45:02;15.45;;;9.10;;
64075;SDS011;50327;51.328;12.324;2023-06-22T06:47:29;14.07;;;9.00;;
64075;SDS011;50327;51.328;12.324;2023-06-22T06:49:54;17.63;;;9.38;;
64075;SDS011;50327;51.328;12.324;2023-06-22T06:52:19;18.00;;;8.98;;
64075;SDS011;50327;51.328;12.324;2023-06-22T06:54:45;17.85;;;8.63;;
64075;SDS011;50327;51.328;12.324;2023-06-22T06:57:10;16.58;;;9.05;;
64075;SDS011;50327;51.328;12.324;2023-06-22T06:59:38;15.98;;;7.97;;
64075;SDS011;50327;51.328;12.324;2023-06-22T07:02:04;19.80;;;8.77;;
64075;SDS011;50327;51.328;12.324;2023-06-22T07:04:30;18.45;;;8.27;;
64075;SDS011;50327;51.328;12.324;2023-06-22T07:06:55;16.10;;;8.25;;
64075;SDS011;50327;51.328;12.324;2023-06-22T07:09:20;18.13;;;8.85;;
64075;SDS011;50327;51.328;12.324;2023-06-22T07:11:46;16.67;;;8.90;;
64075;SDS011;50327;51.328;12.324;2023-06-22T07:14:11;18.17;;;7.70;;
64075;SDS011;50327;51.328;12.324;2023-06-22T07:16:36;16.80;;;8.60;;
64075;SDS011;50327;51.328;12.324;2023-06-22T07:19:02;11.55;;;7.97;;
64075;SDS011;50327;51.328;12.324;2023-06-22T07:21:27;12.90;;;7.65;;
64075;SDS011;50327;51.328;12.324;2023-06-22T07:23:53;18.60;;;7.85;;
64075;SDS011;50327;51.328;12.324;2023-06-22T07:26:19;15.82;;;8.25;;
64075;SDS011;50327;51.328;12.324;2023-06-22T07:28:44;13.63;;;7.47;;
64075;SDS011;50327;51.328;12.324;2023-06-22T07:31:10;13.93;;;7.63;;
64075;SDS011;50327;51.328;12.324;2023-06-22T07:33:35;15.35;;;8.45;;
64075;SDS011;50327;51.328;12.324;2023-06-22T07:36:00;13.65;;;7.38;;
64075;SDS011;50327;51.328;12.324;2023-06-22T07:38:27;15.27;;;8.05;;
64075;SDS011;50327;51.328;12.324;2023-06-22T07:40:53;17.48;;;8.20;;
64075;SDS011;50327;51.328;12.324;2023-06-22T07:43:18;16.77;;;7.97;;
64075;SDS011;50327;51.328;12.324;2023-06-22T07:45:50;11.57;;;7.40;;
64075;SDS011;50327;51.328;12.324;2023-06-22T07:48:22;12.20;;;6.97;;
64075;SDS011;50327;51.328;12.324;2023-06-22T07:50:48;11.63;;;7.05;;
64075;SDS011;50327;51.328;12.324;2023-06-22T07:53:14;13.93;;;7.70;;
64075;SDS011;50327;51.328;12.324;2023-06-22T07:55:39;12.80;;;7.18;;
64075;SDS011;50327;51.328;12.324;2023-06-22T07:58:04;14.18;;;7.35;;
64075;SDS011;50327;51.328;12.324;2023-06-22T08:00:30;12.27;;;7.10;;
64075;SDS011;50327;51.328;12.324;2023-06-22T08:02:55;16.00;;;7.53;;
64075;SDS011;50327;51.328;12.324;2023-06-22T08:05:21;12.82;;;7.63;;
64075;SDS011;50327;51.328;12.324;2023-06-22T08:07:47;10.95;;;6.97;;
64075;SDS011;50327;51.328;12.324;2023-06-22T08:10:12;63.30;;;10.60;;
64075;SDS011;50327;51.328;12.324;2023-06-22T08:12:39;16.58;;;7.53;;
64075;SDS011;50327;51.328;12.324;2023-06-22T08:15:05;12.98;;;6.80;;
64075;SDS011;50327;51.328;12.324;2023-06-22T08:17:32;14.73;;;6.88;;
64075;SDS011;50327;51.328;12.324;2023-06-22T08:19:58;14.02;;;7.00;;
64075;SDS011;50327;51.328;12.324;2023-06-22T08:22:23;15.82;;;7.03;;
64075;SDS011;50327;51.328;12.324;2023-06-22T08:24:48;10.73;;;6.60;;
64075;SDS011;50327;51.328;12.324;2023-06-22T08:27:14;17.75;;;7.13;;
64075;SDS011;50327;51.328;12.324;2023-06-22T08:29:43;12.43;;;7.07;;
64075;SDS011;50327;51.328;12.324;2023-06-22T08:32:10;16.40;;;7.20;;
64075;SDS011;50327;51.328;12.324;2023-06-22T08:34:36;13.68;;;6.80;;
64075;SDS011;50327;51.328;12.324;2023-06-22T08:37:01;11.23;;;7.10;;
64075;SDS011;50327;51.328;12.324;2023-06-22T08:39:31;10.07;;;6.80;;
64075;SDS011;50327;51.328;12.324;2023-06-22T08:41:57;13.85;;;6.63;;
64075;SDS011;50327;51.328;12.324;2023-06-22T08:44:22;13.23;;;6.53;;
64075;SDS011;50327;51.328;12.324;2023-06-22T08:46:47;12.63;;;7.15;;
64075;SDS011;50327;51.328;12.324;2023-06-22T08:49:13;11.63;;;7.40;;
64075;SDS011;50327;51.328;12.324;2023-06-22T08:51:38;12.25;;;7.20;;
64075;SDS011;50327;51.328;12.324;2023-06-22T08:54:03;10.73;;;7.20;;
64075;SDS011;50327;51.328;12.324;2023-06-22T08:56:29;13.73;;;7.30;;
64075;SDS011;50327;51.328;12.324;2023-06-22T08:58:55;17.00;;;7.20;;
64075;SDS011;50327;51.328;12.324;2023-06-22T09:01:21;9.93;;;7.20;;
64075;SDS011;50327;51.328;12.324;2023-06-22T09:03:47;21.90;;;7.63;;
64075;SDS011;50327;51.328;12.324;2023-06-22T09:06:19;17.90;;;6.75;;
64075;SDS011;50327;51.328;12.324;2023-06-22T09:08:46;13.27;;;7.22;;
64075;SDS011;50327;51.328;12.324;2023-06-22T09:11:12;11.00;;;6.45;;
64075;SDS011;50327;51.328;12.324;2023-06-22T09:13:38;14.88;;;7.68;;
64075;SDS011;50327;51.328;12.324;2023-06-22T09:16:03;13.70;;;6.97;;
64075;SDS011;50327;51.328;12.324;2023-06-22T09:18:29;14.70;;;6.28;;
64075;SDS011;50327;51.328;12.324;2023-06-22T09:20:54;12.07;;;5.65;;
64075;SDS011;50327;51.328;12.324;2023-06-22T09:23:19;14.93;;;6.68;;
64075;SDS011;50327;51.328;12.324;2023-06-22T09:25:45;10.38;;;6.25;;
64075;SDS011;50327;51.328;12.324;2023-06-22T09:28:12;11.35;;;6.50;;
64075;SDS011;50327;51.328;12.324;2023-06-22T09:30:38;10.40;;;5.68;;
64075;SDS011;50327;51.328;12.324;2023-06-22T09:33:03;11.85;;;5.20;;
64075;SDS011;50327;51.328;12.324;2023-06-22T09:35:29;10.73;;;5.70;;
64075;SDS011;50327;51.328;12.324;2023-06-22T09:37:54;11.00;;;6.05;;
64075;SDS011;50327;51.328;12.324;2023-06-22T09:40:19;15.90;;;6.32;;
64075;SDS011;50327;51.328;12.324;2023-06-22T09:42:45;9.60;;;5.40;;
64075;SDS011;50327;51.328;12.324;2023-06-22T09:45:10;12.60;;;6.10;;
64075;SDS011;50327;51.328;12.324;2023-06-22T09:47:36;12.00;;;6.00;;
64075;SDS011;50327;51.328;12.324;2023-06-22T09:50:01;9.38;;;5.65;;
64075;SDS011;50327;51.328;12.324;2023-06-22T09:52:27;13.07;;;5.68;;
64075;SDS011;50327;51.328;12.324;2023-06-22T09:54:52;13.80;;;5.70;;
64075;SDS011;50327;51.328;12.324;2023-06-22T09:57:18;11.93;;;5.22;;
64075;SDS011;50327;51.328;12.324;2023-06-22T09:59:43;9.32;;;5.82;;
64075;SDS011;50327;51.328;12.324;2023-06-22T10:02:08;9.25;;;4.97;;
64075;SDS011;50327;51.328;12.324;2023-06-22T10:04:34;7.85;;;5.13;;
64075;SDS011;50327;51.328;12.324;2023-06-22T10:07:00;9.65;;;5.30;;
64075;SDS011;50327;51.328;12.324;2023-06-22T10:09:26;13.30;;;4.97;;
64075;SDS011;50327;51.328;12.324;2023-06-22T10:11:52;10.98;;;4.97;;
64075;SDS011;50327;51.328;12.324;2023-06-22T10:14:17;8.25;;;4.93;;
64075;SDS011;50327;51.328;12.324;2023-06-22T10:16:44;14.52;;;4.93;;
64075;SDS011;50327;51.328;12.324;2023-06-22T10:19:09;11.43;;;5.20;;
64075;SDS011;50327;51.328;12.324;2023-06-22T10:21:35;8.82;;;5.10;;
64075;SDS011;50327;51.328;12.324;2023-06-22T10:24:01;9.05;;;5.20;;
64075;SDS011;50327;51.328;12.324;2023-06-22T10:26:31;16.73;;;5.85;;
64075;SDS011;50327;51.328;12.324;2023-06-22T10:28:57;8.23;;;5.90;;
64075;SDS011;50327;51.328;12.324;2023-06-22T10:31:22;7.38;;;4.97;;
64075;SDS011;50327;51.328;12.324;2023-06-22T10:33:48;7.93;;;5.20;;
64075;SDS011;50327;51.328;12.324;2023-06-22T10:36:14;7.95;;;5.05;;
64075;SDS011;50327;51.328;12.324;2023-06-22T10:38:40;9.90;;;5.30;;
64075;SDS011;50327;51.328;12.324;2023-06-22T10:41:05;9.50;;;4.72;;
64075;SDS011;50327;51.328;12.324;2023-06-22T10:43:30;10.00;;;5.15;;
64075;SDS011;50327;51.328;12.324;2023-06-22T10:45:56;12.57;;;5.78;;
64075;SDS011;50327;51.328;12.324;2023-06-22T10:48:21;9.02;;;5.22;;
64075;SDS011;50327;51.328;12.324;2023-06-22T10:50:46;8.32;;;5.22;;
64075;SDS011;50327;51.328;12.324;2023-06-22T10:53:12;9.13;;;5.38;;
64075;SDS011;50327;51.328;12.324;2023-06-22T10:55:37;8.02;;;4.80;;
64075;SDS011;50327;51.328;12.324;2023-06-22T10:58:03;9.88;;;5.22;;
64075;SDS011;50327;51.328;12.324;2023-06-22T11:00:28;8.13;;;4.90;;
64075;SDS011;50327;51.328;12.324;2023-06-22T11:02:56;10.80;;;5.13;;
64075;SDS011;50327;51.328;12.324;2023-06-22T11:05:23;14.63;;;4.75;;
64075;SDS011;50327;51.328;12.324;2023-06-22T11:07:49;8.82;;;5.65;;
64075;SDS011;50327;51.328;12.324;2023-06-22T11:10:14;13.30;;;5.22;;
64075;SDS011;50327;51.328;12.324;2023-06-22T11:12:40;11.93;;;5.38;;
64075;SDS011;50327;51.328;12.324;2023-06-22T11:15:07;9.80;;;5.25;;
64075;SDS011;50327;51.328;12.324;2023-06-22T11:17:33;18.45;;;6.68;;
64075;SDS011;50327;51.328;12.324;2023-06-22T11:19:59;9.65;;;5.60;;
64075;SDS011;50327;51.328;12.324;2023-06-22T11:22:25;10.93;;;4.70;;
64075;SDS011;50327;51.328;12.324;2023-06-22T11:24:50;10.00;;;5.75;;
64075;SDS011;50327;51.328;12.324;2023-06-22T11:27:16;7.25;;;5.05;;
64075;SDS011;50327;51.328;12.324;2023-06-22T11:29:41;12.52;;;5.35;;
64075;SDS011;50327;51.328;12.324;2023-06-22T11:32:07;7.78;;;5.13;;
64075;SDS011;50327;51.328;12.324;2023-06-22T11:34:32;9.00;;;5.32;;
64075;SDS011;50327;51.328;12.324;2023-06-22T11:36:58;12.82;;;5.72;;
64075;SDS011;50327;51.328;12.324;2023-06-22T11:39:23;12.00;;;6.00;;
64075;SDS011;50327;51.328;12.324;2023-06-22T11:41:48;15.75;;;5.78;;
64075;SDS011;50327;51.328;12.324;2023-06-22T11:44:14;12.07;;;5.95;;
64075;SDS011;50327;51.328;12.324;2023-06-22T11:46:39;10.10;;;6.10;;
64075;SDS011;50327;51.328;12.324;2023-06-22T11:49:05;9.45;;;5.68;;
64075;SDS011;50327;51.328;12.324;2023-06-22T11:51:30;10.02;;;5.82;;
64075;SDS011;50327;51.328;12.324;2023-06-22T11:53:56;8.77;;;5.25;;
64075;SDS011;50327;51.328;12.324;2023-06-22T11:56:22;12.50;;;5.80;;
64075;SDS011;50327;51.328;12.324;2023-06-22T11:58:47;13.30;;;6.25;;
64075;SDS011;50327;51.328;12.324;2023-06-22T12:01:12;10.50;;;6.30;;
64075;SDS011;50327;51.328;12.324;2023-06-22T12:06:07;10.23;;;6.20;;
64075;SDS011;50327;51.328;12.324;2023-06-22T12:08:32;12.77;;;5.90;;
64075;SDS011;50327;51.328;12.324;2023-06-22T12:10:58;10.15;;;5.70;;
64075;SDS011;50327;51.328;12.324;2023-06-22T12:13:23;9.98;;;5.68;;
64075;SDS011;50327;51.328;12.324;2023-06-22T12:15:48;11.60;;;5.72;;
64075;SDS011;50327;51.328;12.324;2023-06-22T12:18:14;10.40;;;5.55;;
64075;SDS011;50327;51.328;12.324;2023-06-22T12:20:40;14.32;;;5.13;;
64075;SDS011;50327;51.328;12.324;2023-06-22T12:23:05;9.82;;;6.10;;
64075;SDS011;50327;51.328;12.324;2023-06-22T12:25:30;8.63;;;5.47;;
64075;SDS011;50327;51.328;12.324;2023-06-22T12:27:56;8.82;;;5.30;;
64075;SDS011;50327;51.328;12.324;2023-06-22T12:30:21;15.30;;;6.10;;
64075;SDS011;50327;51.328;12.324;2023-06-22T12:32:47;8.93;;;5.00;;
64075;SDS011;50327;51.328;12.324;2023-06-22T12:35:12;11.88;;;5.68;;
64075;SDS011;50327;51.328;12.324;2023-06-22T12:37:41;11.68;;;5.35;;
64075;SDS011;50327;51.328;12.324;2023-06-22T12:40:07;10.43;;;5.38;;
64075;SDS011;50327;51.328;12.324;2023-06-22T12:42:33;10.77;;;5.68;;
64075;SDS011;50327;51.328;12.324;2023-06-22T12:44:59;9.88;;;5.43;;
64075;SDS011;50327;51.328;12.324;2023-06-22T12:47:24;15.60;;;5.78;;
64075;SDS011;50327;51.328;12.324;2023-06-22T12:49:49;11.13;;;5.80;;
64075;SDS011;50327;51.328;12.324;2023-06-22T12:52:18;8.93;;;5.43;;
64075;SDS011;50327;51.328;12.324;2023-06-22T12:54:43;19.90;;;5.68;;
64075;SDS011;50327;51.328;12.324;2023-06-22T12:57:09;8.05;;;5.38;;
64075;SDS011;50327;51.328;12.324;2023-06-22T12:59:34;16.60;;;6.00;;
64075;SDS011;50327;51.328;12.324;2023-06-22T13:01:59;10.02;;;5.63;;
64075;SDS011;50327;51.328;12.324;2023-06-22T13:04:25;10.85;;;5.10;;
64075;SDS011;50327;51.328;12.324;2023-06-22T13:06:50;10.18;;;6.47;;
64075;SDS011;50327;51.328;12.324;2023-06-22T13:09:17;11.23;;;5.97;;
64075;SDS011;50327;51.328;12.324;2023-06-22T13:14:08;9.32;;;5.68;;
64075;SDS011;50327;51.328;12.324;2023-06-22T13:16:34;11.23;;;5.93;;
64075;SDS011;50327;51.328;12.324;2023-06-22T13:18:59;9.88;;;6.05;;
64075;SDS011;50327;51.328;12.324;2023-06-22T13:21:25;10.63;;;5.28;;
64075;SDS011;50327;51.328;12.324;2023-06-22T13:23:50;9.38;;;5.60;;
64075;SDS011;50327;51.328;12.324;2023-06-22T13:26:16;9.75;;;5.70;;
64075;SDS011;50327;51.328;12.324;2023-06-22T13:28:41;8.57;;;5.43;;
64075;SDS011;50327;51.328;12.324;2023-06-22T13:31:06;12.27;;;5.72;;
64075;SDS011;50327;51.328;12.324;2023-06-22T13:33:32;8.30;;;5.57;;
64075;SDS011;50327;51.328;12.324;2023-06-22T13:35:57;7.80;;;5.03;;
64075;SDS011;50327;51.328;12.324;2023-06-22T13:38:22;8.50;;;5.38;;
64075;SDS011;50327;51.328;12.324;2023-06-22T13:40:48;12.05;;;6.20;;
64075;SDS011;50327;51.328;12.324;2023-06-22T13:43:14;9.15;;;5.80;;
64075;SDS011;50327;51.328;12.324;2023-06-22T13:45:40;11.02;;;5.85;;
64075;SDS011;50327;51.328;12.324;2023-06-22T13:48:06;10.32;;;5.72;;
64075;SDS011;50327;51.328;12.324;2023-06-22T13:50:32;8.85;;;5.22;;
64075;SDS011;50327;51.328;12.324;2023-06-22T13:52:57;9.80;;;5.95;;
64075;SDS011;50327;51.328;12.324;2023-06-22T13:55:22;9.63;;;5.32;;
64075;SDS011;50327;51.328;12.324;2023-06-22T13:57:48;12.38;;;6.13;;
64075;SDS011;50327;51.328;12.324;2023-06-22T14:00:14;9.93;;;5.95;;
64075;SDS011;50327;51.328;12.324;2023-06-22T14:02:40;15.48;;;6.13;;
64075;SDS011;50327;51.328;12.324;2023-06-22T14:05:06;9.02;;;5.30;;
64075;SDS011;50327;51.328;12.324;2023-06-22T14:07:32;13.77;;;5.82;;
64075;SDS011;50327;51.328;12.324;2023-06-22T14:09:58;11.05;;;5.65;;
64075;SDS011;50327;51.328;12.324;2023-06-22T14:12:25;9.57;;;5.85;;
64075;SDS011;50327;51.328;12.324;2023-06-22T14:14:50;10.95;;;5.90;;
64075;SDS011;50327;51.328;12.324;2023-06-22T14:17:16;11.23;;;5.88;;
64075;SDS011;50327;51.328;12.324;2023-06-22T14:19:41;10.02;;;6.00;;
64075;SDS011;50327;51.328;12.324;2023-06-22T14:22:07;10.88;;;6.50;;
64075;SDS011;50327;51.328;12.324;2023-06-22T14:24:32;9.43;;;5.80;;
64075;SDS011;50327;51.328;12.324;2023-06-22T14:26:57;9.57;;;6.07;;
64075;SDS011;50327;51.328;12.324;2023-06-22T14:29:23;9.27;;;5.30;;
64075;SDS011;50327;51.328;12.324;2023-06-22T14:31:49;13.23;;;5.82;;